Time;durP1;ratioP1;P1;durP2;ratioP2;P2;SDS_P1;SDS_P2;PMS_P1;PMS_P2;Temp;Humidity;BMP_temperature;BMP_pressure;BME280_temperature;BME280_humidity;BME280_pressure;Samples;Min_cycle;Max_cycle;Signal;HPM_P1;HPM_P2
2022/07/16 00:03:14;;;;;;;3.47;2.75;;;24.20;60.50;;;;;;6181095;23;20404;-82
2022/07/16 00:05:41;;;;;;;4.10;3.80;;;24.10;60.90;;;;;;6181007;23;20375;-88
2022/07/16 00:08:08;;;;;;;3.20;2.97;;;24.00;61.50;;;;;;6181203;23;20376;-81
2022/07/16 00:10:35;;;;;;;3.10;2.80;;;23.90;62.30;;;;;;6180968;23;20388;-82
2022/07/16 00:13:02;;;;;;;3.90;3.60;;;23.80;62.10;;;;;;6182914;23;20407;-88
2022/07/16 00:15:30;;;;;;;3.20;2.90;;;23.80;62.40;;;;;;6180880;23;20377;-82
2022/07/16 00:20:43;;;;;;;4.25;3.85;;;23.80;62.10;;;;;;6182090;23;20380;-82
2022/07/16 00:23:10;;;;;;;3.60;3.30;;;23.70;63.50;;;;;;6181319;23;20372;-82
2022/07/16 00:25:37;;;;;;;3.40;3.10;;;23.60;63.60;;;;;;6180452;23;20403;-83
2022/07/16 00:28:04;;;;;;;3.33;3.03;;;23.60;63.50;;;;;;6182262;23;20372;-82
2022/07/16 00:30:31;;;;;;;3.42;3.10;;;23.50;63.60;;;;;;6180535;23;20376;-82
2022/07/16 00:32:58;;;;;;;3.50;3.20;;;23.50;63.20;;;;;;6181899;23;20446;-81
2022/07/16 00:35:27;;;;;;;3.92;3.63;;;23.50;63.00;;;;;;6181346;23;20379;-82
2022/07/16 00:37:54;;;;;;;3.50;3.30;;;23.40;63.40;;;;;;6168789;23;21117;-88
2022/07/16 00:40:21;;;;;;;4.05;3.72;;;23.30;64.00;;;;;;6181416;23;20744;-82
2022/07/16 00:42:48;;;;;;;3.40;3.10;;;23.30;64.10;;;;;;6180733;23;20383;-83
2022/07/16 00:45:15;;;;;;;3.70;3.38;;;23.20;63.90;;;;;;6181470;23;20372;-87
2022/07/16 00:47:42;;;;;;;3.25;3.05;;;23.10;64.00;;;;;;6180784;23;20372;-82
2022/07/16 00:50:09;;;;;;;3.67;3.40;;;23.20;64.10;;;;;;6181343;23;20369;-83
2022/07/16 00:52:36;;;;;;;2.70;2.50;;;23.10;65.00;;;;;;6180785;23;20523;-82
2022/07/16 00:55:04;;;;;;;3.08;2.88;;;23.10;65.00;;;;;;6181042;23;20674;-89
2022/07/16 00:57:31;;;;;;;3.08;2.88;;;23.10;65.00;;;;;;6156454;23;20429;-82
2022/07/16 00:59:58;;;;;;;3.08;2.88;;;23.10;65.00;;;;;;6181761;23;20430;-82
2022/07/16 01:02:25;;;;;;;3.40;3.20;;;23.20;65.00;;;;;;6181783;23;20446;-82
2022/07/16 01:04:52;;;;;;;3.85;3.45;;;23.20;64.90;;;;;;6180504;23;20659;-88
2022/07/16 01:07:22;;;;;;;3.63;3.33;;;23.10;65.00;;;;;;6183930;23;20428;-89
2022/07/16 01:09:50;;;;;;;4.55;3.45;;;23.10;65.90;;;;;;6183668;23;20372;-83
2022/07/16 01:12:17;;;;;;;3.22;2.92;;;23.10;66.80;;;;;;6182726;23;20396;-89
2022/07/16 01:14:44;;;;;;;3.42;2.72;;;23.10;66.80;;;;;;6180533;23;20364;-82
2022/07/16 01:17:11;;;;;;;3.53;3.10;;;23.20;67.30;;;;;;6181332;23;20427;-83
2022/07/16 01:19:38;;;;;;;4.57;3.50;;;23.20;67.70;;;;;;6182195;23;20411;-82
2022/07/16 01:22:05;;;;;;;3.78;3.38;;;23.30;67.80;;;;;;6182568;23;20705;-88
2022/07/16 01:24:32;;;;;;;5.23;3.97;;;23.30;69.20;;;;;;6183890;23;20753;-82
2022/07/16 01:26:59;;;;;;;3.58;3.33;;;23.40;69.50;;;;;;6170529;23;20372;-81
2022/07/16 01:29:26;;;;;;;4.60;4.20;;;23.40;68.40;;;;;;6183201;23;20423;-82
2022/07/16 01:31:53;;;;;;;4.35;4.00;;;23.30;67.60;;;;;;6182528;23;20754;-81
2022/07/16 01:34:26;;;;;;;3.97;3.70;;;23.10;67.40;;;;;;6182534;23;20871;-82
2022/07/16 01:36:54;;;;;;;5.00;4.60;;;23.00;68.10;;;;;;6182234;23;20419;-82
2022/07/16 01:39:22;;;;;;;3.95;3.67;;;22.80;68.20;;;;;;6183077;23;20918;-82
2022/07/16 01:41:55;;;;;;;5.03;4.53;;;22.70;68.30;;;;;;6182060;23;20369;-81
2022/07/16 01:44:24;;;;;;;4.22;3.92;;;22.70;68.80;;;;;;6182637;23;20853;-88
2022/07/16 01:46:52;;;;;;;5.43;4.93;;;22.60;69.00;;;;;;6182540;23;20376;-88
2022/07/16 01:49:20;;;;;;;4.88;4.47;;;22.60;69.60;;;;;;6183093;23;20447;-88
2022/07/16 01:51:47;;;;;;;4.60;4.20;;;22.50;70.20;;;;;;6182304;23;20372;-81
2022/07/16 01:54:14;;;;;;;4.85;4.55;;;22.50;70.00;;;;;;6182555;23;20729;-82
2022/07/16 01:56:42;;;;;;;4.05;3.75;;;22.60;70.50;;;;;;6182400;23;20376;-82
2022/07/16 01:59:09;;;;;;;3.93;3.63;;;22.60;70.30;;;;;;6182941;23;20895;-82
2022/07/16 02:01:36;;;;;;;3.90;3.60;;;22.60;69.90;;;;;;6182533;23;20376;-88
2022/07/16 02:04:03;;;;;;;4.80;4.40;;;22.70;69.70;;;;;;6181942;23;20368;-81
2022/07/16 02:06:30;;;;;;;4.32;3.92;;;22.70;70.00;;;;;;6182999;23;20380;-83
2022/07/16 02:08:56;;;;;;;4.15;3.85;;;22.70;70.10;;;;;;6182624;23;20423;-82
2022/07/16 02:11:23;;;;;;;3.90;3.63;;;22.70;69.80;;;;;;6183020;23;20950;-87
2022/07/16 02:13:50;;;;;;;4.30;4.00;;;22.70;69.60;;;;;;6181616;23;20380;-82
2022/07/16 02:16:17;;;;;;;4.70;4.35;;;22.60;69.80;;;;;;6182528;23;20903;-82
2022/07/16 02:18:45;;;;;;;4.03;3.73;;;22.50;69.80;;;;;;6182381;23;20427;-81
2022/07/16 02:21:12;;;;;;;4.40;4.00;;;22.40;69.90;;;;;;6182670;23;20431;-88
2022/07/16 02:23:39;;;;;;;4.45;4.15;;;22.40;70.20;;;;;;6182346;23;20407;-81
2022/07/16 02:26:06;;;;;;;4.20;3.90;;;22.40;70.40;;;;;;6181407;23;20671;-82
2022/07/16 02:28:32;;;;;;;4.03;3.72;;;22.30;70.30;;;;;;6182416;23;20434;-85
2022/07/16 02:30:59;;;;;;;3.80;3.60;;;22.30;70.60;;;;;;6181863;23;20802;-81
2022/07/16 02:33:26;;;;;;;3.92;3.63;;;22.30;70.60;;;;;;6182391;23;20460;-90
2022/07/16 02:35:53;;;;;;;4.40;4.10;;;22.30;70.60;;;;;;6183209;23;20828;-82
2022/07/16 02:38:20;;;;;;;4.20;3.90;;;22.20;70.80;;;;;;6182573;23;20703;-82
2022/07/16 02:40:47;;;;;;;4.90;4.40;;;22.10;70.80;;;;;;6181372;23;20376;-81
2022/07/16 02:43:14;;;;;;;4.70;4.22;;;22.10;71.20;;;;;;6182392;23;20403;-82
2022/07/16 02:45:42;;;;;;;4.55;4.25;;;21.90;71.10;;;;;;6182521;23;20428;-81
2022/07/16 02:48:10;;;;;;;4.60;4.20;;;21.80;71.50;;;;;;6181868;23;20751;-82
2022/07/16 02:50:39;;;;;;;3.70;3.50;;;21.80;71.60;;;;;;6182288;23;20434;-82
2022/07/16 02:53:06;;;;;;;4.70;4.30;;;21.70;71.60;;;;;;6182263;23;20355;-87
2022/07/16 02:55:34;;;;;;;4.35;4.05;;;21.70;71.80;;;;;;6181991;23;20447;-82
2022/07/16 02:58:01;;;;;;;4.10;3.80;;;21.70;72.00;;;;;;6181722;23;20756;-80
2022/07/16 03:00:28;;;;;;;4.13;3.90;;;21.70;72.00;;;;;;6182412;23;20384;-81
2022/07/16 03:02:56;;;;;;;4.30;4.00;;;21.70;72.30;;;;;;6181483;23;20384;-82
2022/07/16 03:05:24;;;;;;;5.25;4.75;;;21.70;72.40;;;;;;6182381;23;20368;-88
2022/07/16 03:07:52;;;;;;;4.80;4.50;;;21.70;72.70;;;;;;6183085;23;20372;-81
2022/07/16 03:10:19;;;;;;;5.25;4.85;;;21.70;72.80;;;;;;6182602;23;20368;-82
2022/07/16 03:12:46;;;;;;;5.43;5.00;;;21.70;72.80;;;;;;6182230;23;20403;-81
2022/07/16 03:15:13;;;;;;;4.30;4.00;;;21.60;73.50;;;;;;6181444;23;20423;-82
2022/07/16 03:17:40;;;;;;;4.88;4.47;;;21.60;72.50;;;;;;6182007;23;20371;-81
2022/07/16 03:20:08;;;;;;;5.15;4.65;;;21.60;72.90;;;;;;6181549;23;20414;-81
2022/07/16 03:22:35;;;;;;;6.10;5.50;;;21.60;73.10;;;;;;6181990;23;20368;-81
2022/07/16 03:25:02;;;;;;;6.15;5.75;;;21.60;73.20;;;;;;6181402;23;20372;-87
2022/07/16 03:27:29;;;;;;;5.10;4.68;;;21.60;74.30;;;;;;6181881;23;20439;-82
2022/07/16 03:29:56;;;;;;;5.38;4.97;;;21.50;74.40;;;;;;6181643;23;20426;-82
2022/07/16 03:32:23;;;;;;;4.63;4.23;;;21.60;74.40;;;;;;6181997;23;20422;-80
2022/07/16 03:34:50;;;;;;;5.22;4.75;;;21.60;74.30;;;;;;6181912;23;20376;-82
2022/07/16 03:37:17;;;;;;;5.63;5.15;;;21.60;74.20;;;;;;6181344;23;20368;-81
2022/07/16 03:39:43;;;;;;;4.90;4.50;;;21.60;74.70;;;;;;6182413;23;20427;-86
2022/07/16 03:42:10;;;;;;;5.03;4.63;;;21.60;74.00;;;;;;6180609;23;20387;-81
2022/07/16 03:44:37;;;;;;;4.60;4.20;;;21.50;74.90;;;;;;6181827;23;20438;-82
2022/07/16 03:47:04;;;;;;;3.97;3.77;;;21.50;74.00;;;;;;6181161;23;20376;-87
2022/07/16 03:49:31;;;;;;;4.40;4.00;;;21.50;75.00;;;;;;6181708;23;20690;-82
2022/07/16 03:51:58;;;;;;;5.10;4.07;;;21.40;74.00;;;;;;6181289;23;20426;-87
2022/07/16 03:54:25;;;;;;;4.57;4.20;;;21.40;74.20;;;;;;6181942;23;20376;-80
2022/07/16 03:56:52;;;;;;;5.32;4.68;;;21.30;74.60;;;;;;6181721;23;20423;-82
2022/07/16 03:59:19;;;;;;;5.28;4.88;;;21.30;75.20;;;;;;6182463;23;20368;-86
2022/07/16 04:01:46;;;;;;;5.10;4.70;;;21.30;75.60;;;;;;6181476;23;20368;-82
2022/07/16 04:04:13;;;;;;;6.70;5.97;;;21.30;75.80;;;;;;6181196;23;20420;-81
2022/07/16 04:06:39;;;;;;;5.13;4.78;;;21.20;76.10;;;;;;6181888;23;20403;-82
2022/07/16 04:09:06;;;;;;;4.63;4.22;;;21.10;76.20;;;;;;6181156;23;20496;-81
2022/07/16 04:11:33;;;;;;;5.60;5.10;;;21.10;76.00;;;;;;6181657;23;20426;-81
2022/07/16 04:14:00;;;;;;;4.20;3.90;;;21.10;76.30;;;;;;6181024;23;20372;-81
2022/07/16 04:16:27;;;;;;;5.53;5.13;;;21.10;77.30;;;;;;6182984;23;20399;-88
2022/07/16 04:18:54;;;;;;;5.13;4.72;;;21.10;76.40;;;;;;6182080;23;20450;-82
2022/07/16 04:21:21;;;;;;;5.33;4.93;;;21.10;76.70;;;;;;6180719;23;20822;-88
2022/07/16 04:23:48;;;;;;;4.75;4.45;;;21.10;76.80;;;;;;6181400;23;20435;-82
2022/07/16 04:26:15;;;;;;;5.68;5.18;;;21.10;76.60;;;;;;6180952;23;20372;-88
2022/07/16 04:28:42;;;;;;;5.10;4.78;;;21.20;76.90;;;;;;6182821;23;20376;-82
2022/07/16 04:31:08;;;;;;;5.43;5.03;;;21.10;77.20;;;;;;6179453;23;20443;-88
2022/07/16 04:33:35;;;;;;;5.18;4.78;;;21.20;77.50;;;;;;6182895;23;20431;-82
2022/07/16 04:36:03;;;;;;;4.90;4.50;;;21.20;77.20;;;;;;6180597;23;20479;-81
2022/07/16 04:38:30;;;;;;;4.63;4.32;;;21.30;77.10;;;;;;6181569;23;20701;-82
2022/07/16 04:40:57;;;;;;;4.95;4.55;;;21.30;76.60;;;;;;6181514;23;20371;-82
2022/07/16 04:43:24;;;;;;;5.10;4.65;;;21.40;77.30;;;;;;6180608;23;20380;-82
2022/07/16 04:45:51;;;;;;;5.32;4.93;;;21.40;76.10;;;;;;6181056;23;20438;-82
2022/07/16 04:48:18;;;;;;;4.82;4.53;;;21.30;76.30;;;;;;6180264;23;20427;-89
2022/07/16 04:50:45;;;;;;;4.95;4.55;;;21.20;76.60;;;;;;6181229;23;20460;-81
2022/07/16 04:53:12;;;;;;;4.33;4.03;;;21.30;76.70;;;;;;6180722;23;20421;-82
2022/07/16 04:55:39;;;;;;;4.27;3.97;;;21.30;77.40;;;;;;6181662;23;20376;-82
2022/07/16 04:58:05;;;;;;;4.10;3.90;;;21.30;76.20;;;;;;6180557;23;20403;-81
2022/07/16 05:00:32;;;;;;;5.53;5.03;;;21.40;76.00;;;;;;6180327;23;20369;-82
2022/07/16 05:02:59;;;;;;;4.80;4.40;;;21.50;76.40;;;;;;6181746;23;20372;-82
2022/07/16 05:05:34;;;;;;;4.20;3.85;;;21.60;76.00;;;;;;6180806;23;20372;-81
2022/07/16 05:08:03;;;;;;;4.45;4.05;;;21.70;75.70;;;;;;6181040;23;20717;-82
2022/07/16 05:10:30;;;;;;;4.22;3.78;;;21.70;75.30;;;;;;6169593;23;20802;-82
2022/07/16 05:12:58;;;;;;;3.17;2.78;;;21.80;74.60;;;;;;6181465;23;20380;-88
2022/07/16 05:15:26;;;;;;;2.00;1.90;;;21.90;72.10;;;;;;6180377;23;20426;-82
2022/07/16 05:17:53;;;;;;;2.15;1.40;;;22.00;69.60;;;;;;6181314;23;20426;-82
2022/07/16 05:20:20;;;;;;;1.65;1.55;;;22.10;65.70;;;;;;6180638;23;20377;-83
2022/07/16 05:22:47;;;;;;;2.10;1.53;;;22.20;64.20;;;;;;6181360;23;20368;-89
2022/07/16 05:25:15;;;;;;;2.20;1.10;;;22.30;62.00;;;;;;6181478;23;20503;-82
2022/07/16 05:27:43;;;;;;;0.90;0.90;;;22.40;60.30;;;;;;6181512;23;20741;-80
2022/07/16 05:30:11;;;;;;;1.20;1.10;;;22.50;59.90;;;;;;6180627;23;20763;-81
2022/07/16 05:32:44;;;;;;;1.80;1.23;;;22.60;58.40;;;;;;6181489;23;20372;-83
2022/07/16 05:35:15;;;;;;;1.30;1.20;;;22.70;57.80;;;;;;6180429;23;20381;-80
2022/07/16 05:37:43;;;;;;;1.35;1.10;;;22.80;57.30;;;;;;6162719;23;20424;-89
2022/07/16 05:40:11;;;;;;;1.38;0.90;;;22.90;56.60;;;;;;6177165;23;20435;-81
2022/07/16 05:42:38;;;;;;;2.17;1.10;;;23.00;56.20;;;;;;6183071;23;20380;-83
2022/07/16 05:45:12;;;;;;;2.00;1.38;;;23.00;55.10;;;;;;6180489;23;20372;-81
2022/07/16 05:47:38;;;;;;;0.90;0.80;;;23.10;54.70;;;;;;6182282;23;20527;-82
2022/07/16 05:50:06;;;;;;;1.48;1.05;;;23.20;53.90;;;;;;6181492;23;20383;-83
2022/07/16 05:52:33;;;;;;;1.55;0.90;;;23.30;53.20;;;;;;6180814;23;20371;-82
2022/07/16 05:55:00;;;;;;;1.67;1.00;;;23.40;52.30;;;;;;6180848;23;20709;-83
2022/07/16 05:57:27;;;;;;;1.70;0.80;;;23.50;52.30;;;;;;6180688;23;20376;-88
2022/07/16 05:59:54;;;;;;;1.17;0.60;;;23.60;51.90;;;;;;6183276;23;20682;-90
2022/07/16 06:02:21;;;;;;;1.65;0.80;;;23.60;51.40;;;;;;6183235;23;20427;-83
2022/07/16 06:04:48;;;;;;;1.75;1.10;;;23.70;51.50;;;;;;6181506;23;20844;-81
2022/07/16 06:07:15;;;;;;;1.00;0.90;;;23.80;50.70;;;;;;6181120;23;20396;-81
2022/07/16 06:09:42;;;;;;;1.40;0.80;;;23.90;50.80;;;;;;6182496;23;20372;-81
2022/07/16 06:12:09;;;;;;;1.30;0.80;;;24.00;50.60;;;;;;6185450;23;20369;-81
2022/07/16 06:14:36;;;;;;;0.85;0.80;;;24.00;50.10;;;;;;6183118;23;20507;-80
2022/07/16 06:17:03;;;;;;;0.82;0.75;;;24.10;50.00;;;;;;6183023;23;20430;-81
2022/07/16 06:19:30;;;;;;;0.95;0.75;;;24.20;49.80;;;;;;6182101;23;20372;-83
2022/07/16 06:21:57;;;;;;;1.38;0.93;;;24.20;49.80;;;;;;6182558;23;20837;-81
2022/07/16 06:24:24;;;;;;;1.60;1.17;;;24.30;49.60;;;;;;6181872;23;20392;-83
2022/07/16 06:26:51;;;;;;;2.35;0.80;;;24.40;49.70;;;;;;6183011;23;20903;-89
2022/07/16 06:29:18;;;;;;;1.30;0.80;;;24.50;49.30;;;;;;6181968;23;20372;-82
2022/07/16 06:31:45;;;;;;;1.75;0.90;;;24.60;48.80;;;;;;6184188;23;20816;-88
2022/07/16 06:34:12;;;;;;;1.90;0.90;;;24.60;48.70;;;;;;6182003;23;20440;-82
2022/07/16 06:36:39;;;;;;;1.80;0.95;;;24.80;49.00;;;;;;6181738;23;20376;-81
2022/07/16 06:39:07;;;;;;;0.80;0.80;;;24.80;47.90;;;;;;6182753;23;20753;-82
2022/07/16 06:41:38;;;;;;;0.70;0.70;;;24.90;47.70;;;;;;6181468;23;20856;-82
2022/07/16 06:44:06;;;;;;;0.93;0.80;;;25.00;47.80;;;;;;6181957;23;20381;-82
2022/07/16 06:46:33;;;;;;;1.08;0.80;;;25.00;47.70;;;;;;6181283;23;20405;-83
2022/07/16 06:49:00;;;;;;;1.05;0.90;;;25.10;47.90;;;;;;6182479;23;20852;-88
2022/07/16 06:51:27;;;;;;;1.45;0.80;;;25.20;48.10;;;;;;6181542;23;20372;-88
2022/07/16 06:53:54;;;;;;;1.65;0.90;;;25.20;48.00;;;;;;6183424;23;20907;-88
2022/07/16 06:56:21;;;;;;;1.60;0.90;;;25.30;47.90;;;;;;6181487;23;20427;-85
2022/07/16 06:58:48;;;;;;;1.00;0.90;;;25.40;48.20;;;;;;6177229;23;20373;-83
2022/07/16 07:01:15;;;;;;;1.23;0.90;;;25.50;48.40;;;;;;6179781;23;20375;-81
2022/07/16 07:03:42;;;;;;;1.13;0.88;;;25.60;47.90;;;;;;6180423;23;20368;-83
2022/07/16 07:06:09;;;;;;;2.40;1.40;;;25.70;47.70;;;;;;6181679;23;20383;-81
2022/07/16 07:08:37;;;;;;;1.75;1.13;;;25.80;47.70;;;;;;6180799;23;20377;-83
2022/07/16 07:11:04;;;;;;;2.58;1.30;;;25.90;49.30;;;;;;6180875;23;20711;-87
2022/07/16 07:13:31;;;;;;;2.97;1.30;;;26.20;51.00;;;;;;6176882;23;20459;-83
2022/07/16 07:15:59;;;;;;;2.60;1.50;;;26.30;51.70;;;;;;6180229;23;20365;-81
2022/07/16 07:18:26;;;;;;;1.97;1.30;;;26.50;52.80;;;;;;6179193;23;20408;-87
2022/07/16 07:20:56;;;;;;;3.40;1.60;;;26.70;53.00;;;;;;6178930;23;20447;-81
2022/07/16 07:23:23;;;;;;;3.27;1.53;;;26.80;53.10;;;;;;6177196;23;20376;-82
2022/07/16 07:25:50;;;;;;;2.85;1.48;;;26.90;53.10;;;;;;6181638;23;20372;-84
2022/07/16 07:28:17;;;;;;;1.58;1.48;;;27.00;52.40;;;;;;6181791;23;20379;-81
2022/07/16 07:30:44;;;;;;;1.50;1.40;;;27.20;52.00;;;;;;6181448;23;20376;-83
2022/07/16 07:33:11;;;;;;;1.80;1.60;;;27.20;51.80;;;;;;6180763;23;20377;-82
2022/07/16 07:35:38;;;;;;;2.03;1.83;;;27.30;52.00;;;;;;6178642;23;20377;-81
2022/07/16 07:38:05;;;;;;;1.90;1.50;;;27.40;52.10;;;;;;6181225;23;20892;-87
2022/07/16 07:40:32;;;;;;;1.85;1.63;;;27.60;52.20;;;;;;6180754;23;20442;-83
2022/07/16 07:42:59;;;;;;;2.55;1.83;;;27.70;51.80;;;;;;6181299;23;20373;-82
2022/07/16 07:45:26;;;;;;;1.73;1.50;;;27.80;51.20;;;;;;6180092;23;20439;-81
2022/07/16 07:47:53;;;;;;;1.60;1.50;;;28.00;51.40;;;;;;6182168;23;20377;-85
2022/07/16 07:50:20;;;;;;;2.58;2.15;;;28.10;51.00;;;;;;6181051;23;20439;-82
2022/07/16 07:52:47;;;;;;;3.45;1.50;;;28.30;50.10;;;;;;6180723;23;20820;-83
2022/07/16 07:55:14;;;;;;;1.95;1.58;;;28.50;49.60;;;;;;6181546;23;20837;-83
2022/07/16 07:57:42;;;;;;;2.07;1.60;;;28.60;49.10;;;;;;6180801;23;20392;-81
2022/07/16 08:00:09;;;;;;;2.50;1.60;;;28.80;48.50;;;;;;6181610;23;20380;-82
2022/07/16 08:02:37;;;;;;;3.30;1.70;;;28.90;48.70;;;;;;6180979;23;20427;-82
2022/07/16 08:05:04;;;;;;;2.60;1.80;;;29.10;48.70;;;;;;6181269;23;20388;-83
2022/07/16 08:07:31;;;;;;;2.45;1.98;;;29.20;48.60;;;;;;6180996;23;20383;-86
2022/07/16 08:09:58;;;;;;;3.30;1.70;;;29.30;48.90;;;;;;6181646;23;20453;-85
2022/07/16 08:12:25;;;;;;;2.08;1.60;;;29.40;47.70;;;;;;6181657;23;20430;-82
2022/07/16 08:14:52;;;;;;;1.95;1.60;;;29.40;47.20;;;;;;6182585;23;20415;-86
2022/07/16 08:17:19;;;;;;;3.15;1.90;;;29.50;46.90;;;;;;6181730;23;20384;-82
2022/07/16 08:19:46;;;;;;;2.50;1.73;;;29.50;47.00;;;;;;6180563;23;20400;-82
2022/07/16 08:22:13;;;;;;;2.22;1.73;;;29.60;47.80;;;;;;6181263;23;20383;-82
2022/07/16 08:27:33;;;;;;;2.55;1.70;;;30.00;47.80;;;;;;6165418;23;20423;-82
2022/07/16 08:30:00;;;;;;;4.20;1.98;;;30.10;46.10;;;;;;6162915;23;20370;-82
2022/07/16 08:32:27;;;;;;;1.77;1.60;;;30.20;46.70;;;;;;6176005;23;20829;-86
2022/07/16 08:34:54;;;;;;;3.65;2.10;;;30.20;46.60;;;;;;6180610;23;20427;-83
2022/07/16 08:37:36;;;;;;;2.20;1.70;;;30.20;48.30;;;;;;6179922;23;20368;-82
2022/07/16 08:40:05;;;;;;;2.00;1.70;;;30.30;46.70;;;;;;6180605;23;20410;-83
2022/07/16 08:42:34;;;;;;;2.45;1.80;;;30.50;47.30;;;;;;6180828;23;20371;-83
2022/07/16 08:45:02;;;;;;;1.55;1.45;;;30.70;45.40;;;;;;6180930;23;20372;-83
2022/07/16 08:47:30;;;;;;;2.58;1.85;;;30.70;45.20;;;;;;6181276;23;20412;-83
2022/07/16 08:49:59;;;;;;;3.40;1.90;;;30.80;44.00;;;;;;6180568;23;20376;-83
2022/07/16 08:52:27;;;;;;;2.88;1.60;;;30.90;44.10;;;;;;6181126;23;20376;-83
2022/07/16 08:54:55;;;;;;;2.88;2.45;;;31.00;45.50;;;;;;6180985;23;20903;-83
2022/07/16 08:57:23;;;;;;;2.55;1.60;;;31.10;45.20;;;;;;6181521;23;20419;-82
2022/07/16 08:59:52;;;;;;;2.15;1.48;;;31.20;44.80;;;;;;6180543;23;20365;-82
2022/07/16 09:02:19;;;;;;;3.95;1.77;;;31.20;44.90;;;;;;6180908;23;20372;-83
2022/07/16 09:04:46;;;;;;;2.35;1.50;;;31.20;44.40;;;;;;6180295;23;20388;-82
2022/07/16 09:07:18;;;;;;;2.05;1.30;;;31.20;45.30;;;;;;6181165;23;20447;-87
2022/07/16 09:09:45;;;;;;;1.90;1.60;;;31.30;44.70;;;;;;6180717;23;20372;-84
2022/07/16 09:12:46;;;;;;;3.58;1.80;;;31.30;44.90;;;;;;6181662;23;20372;-84
2022/07/16 09:15:26;;;;;;;1.90;1.70;;;31.40;45.00;;;;;;6168287;23;20430;-83
2022/07/16 09:18:11;;;;;;;3.35;1.80;;;31.50;43.40;;;;;;6180669;23;20373;-82
2022/07/16 09:20:41;;;;;;;1.85;1.55;;;31.40;43.60;;;;;;6181144;23;20837;-87
2022/07/16 09:23:18;;;;;;;2.80;1.52;;;31.50;44.70;;;;;;6179321;23;22330;-86
2022/07/16 09:25:57;;;;;;;2.90;1.50;;;31.50;44.20;;;;;;6181505;23;20388;-84
2022/07/16 09:28:26;;;;;;;2.28;1.60;;;31.50;43.50;;;;;;6168030;23;21000;-82
2022/07/16 09:30:53;;;;;;;2.78;1.80;;;31.50;42.90;;;;;;6181137;23;20446;-87
2022/07/16 09:33:22;;;;;;;2.80;1.73;;;31.40;43.60;;;;;;6180582;23;20427;-88
2022/07/16 09:36:10;;;;;;;2.38;1.52;;;31.60;44.30;;;;;;6181289;23;20411;-88
2022/07/16 09:38:51;;;;;;;4.07;1.70;;;31.70;44.70;;;;;;6179611;23;20368;-82
2022/07/16 09:41:20;;;;;;;3.00;2.03;;;31.70;43.40;;;;;;6179478;23;20467;-83
2022/07/16 09:43:48;;;;;;;2.53;1.33;;;31.80;43.90;;;;;;6182540;23;20375;-83
2022/07/16 09:46:23;;;;;;;3.03;1.73;;;31.80;43.20;;;;;;6181422;23;20380;-84
2022/07/16 09:48:51;;;;;;;4.30;1.55;;;32.00;42.80;;;;;;6180526;23;20399;-83
2022/07/16 09:51:26;;;;;;;3.80;1.80;;;32.10;42.80;;;;;;6180733;23;20376;-82
2022/07/16 09:53:54;;;;;;;2.50;1.67;;;32.30;42.60;;;;;;6181091;23;20384;-83
2022/07/16 09:56:24;;;;;;;1.50;1.40;;;32.30;41.60;;;;;;6180249;23;20372;-83
2022/07/16 09:58:58;;;;;;;3.10;1.63;;;32.30;42.00;;;;;;6181723;23;20376;-82
2022/07/16 10:01:32;;;;;;;1.87;1.27;;;32.30;42.10;;;;;;6180729;23;20459;-83
2022/07/16 10:03:59;;;;;;;2.67;1.30;;;32.50;42.70;;;;;;6181360;23;20381;-87
2022/07/16 10:06:27;;;;;;;2.22;1.50;;;32.60;42.30;;;;;;6180674;23;20859;-90
2022/07/16 10:08:54;;;;;;;2.45;1.52;;;32.80;41.20;;;;;;6181240;23;20380;-83
2022/07/16 10:11:22;;;;;;;4.00;1.40;;;32.90;40.50;;;;;;6180739;23;20368;-83
2022/07/16 10:13:51;;;;;;;1.70;1.30;;;32.90;40.00;;;;;;6181537;23;20369;-84
2022/07/16 10:16:37;;;;;;;2.30;1.40;;;32.90;40.40;;;;;;6180068;23;20471;-84
2022/07/16 10:19:06;;;;;;;2.38;1.60;;;32.90;40.10;;;;;;6180820;23;20411;-83
2022/07/16 10:21:33;;;;;;;3.00;1.23;;;32.90;39.90;;;;;;6180810;23;20387;-85
2022/07/16 10:24:15;;;;;;;1.30;1.20;;;32.70;39.30;;;;;;6180762;23;20376;-84
2022/07/16 10:26:42;;;;;;;2.00;1.30;;;32.80;40.30;;;;;;6168378;23;20426;-82
2022/07/16 10:29:10;;;;;;;2.50;1.40;;;32.90;39.80;;;;;;6180715;23;20380;-83
2022/07/16 10:34:36;;;;;;;2.70;1.52;;;33.20;39.60;;;;;;6181394;23;20443;-84
2022/07/16 10:37:09;;;;;;;1.97;1.33;;;33.30;38.70;;;;;;6181223;23;20376;-88
2022/07/16 10:40:06;;;;;;;2.53;1.33;;;33.50;38.60;;;;;;6180370;23;20372;-86
2022/07/16 10:42:34;;;;;;;2.10;1.30;;;33.70;38.00;;;;;;6155194;23;20453;-87
2022/07/16 10:45:02;;;;;;;2.22;1.58;;;33.50;36.50;;;;;;6180853;23;20439;-84
2022/07/16 10:47:43;;;;;;;2.45;1.10;;;33.50;37.50;;;;;;6180740;23;20710;-84
2022/07/16 10:50:22;;;;;;;2.47;1.30;;;33.60;38.30;;;;;;6181401;23;20376;-84
2022/07/16 10:52:51;;;;;;;2.47;1.10;;;33.70;37.10;;;;;;6168219;23;20372;-84
2022/07/16 10:55:36;;;;;;;2.33;1.23;;;34.00;37.50;;;;;;6181421;23;20423;-82
2022/07/16 10:58:04;;;;;;;2.45;1.40;;;34.10;36.90;;;;;;6145003;23;20376;-84
2022/07/16 11:00:31;;;;;;;3.10;1.20;;;34.10;35.60;;;;;;6181865;23;20404;-88
2022/07/16 11:03:01;;;;;;;2.53;1.02;;;34.20;36.00;;;;;;6181057;23;20900;-83
2022/07/16 11:05:45;;;;;;;1.92;1.00;;;34.20;35.90;;;;;;6181119;23;20376;-83
2022/07/16 11:08:12;;;;;;;1.80;1.20;;;34.30;35.50;;;;;;6181755;23;20431;-82
2022/07/16 11:10:40;;;;;;;2.03;1.00;;;34.40;35.40;;;;;;6182209;23;20376;-83
2022/07/16 11:13:14;;;;;;;2.65;1.30;;;34.50;34.00;;;;;;6170014;23;21265;-89
2022/07/16 11:15:41;;;;;;;2.47;1.15;;;34.30;33.50;;;;;;6181350;23;20384;-81
2022/07/16 11:18:15;;;;;;;1.73;0.90;;;34.20;34.60;;;;;;6180294;23;20364;-82
2022/07/16 11:20:44;;;;;;;1.73;1.13;;;34.10;34.90;;;;;;6180872;23;20371;-87
2022/07/16 11:23:12;;;;;;;1.80;1.17;;;34.10;34.90;;;;;;6169967;23;20497;-87
2022/07/16 11:26:00;;;;;;;2.40;1.10;;;34.20;34.30;;;;;;6180492;23;20387;-82
2022/07/16 11:28:28;;;;;;;1.67;1.00;;;34.20;34.80;;;;;;6168464;23;20829;-87
2022/07/16 11:31:04;;;;;;;2.05;0.95;;;34.20;33.30;;;;;;6181214;23;20376;-82
2022/07/16 11:33:54;;;;;;;2.30;1.23;;;34.40;34.30;;;;;;6168845;23;20459;-88
2022/07/16 11:36:25;;;;;;;2.45;0.80;;;34.70;34.30;;;;;;6181834;23;20364;-81
2022/07/16 11:38:57;;;;;;;1.40;0.80;;;34.90;33.50;;;;;;6180355;23;20373;-82
2022/07/16 11:41:24;;;;;;;2.30;0.90;;;35.10;32.60;;;;;;6181106;23;20761;-81
2022/07/16 11:43:52;;;;;;;1.93;1.00;;;35.20;30.80;;;;;;6180470;23;20423;-87
2022/07/16 11:46:27;;;;;;;1.27;0.82;;;35.20;31.10;;;;;;6181727;23;20451;-81
2022/07/16 11:48:55;;;;;;;1.33;1.00;;;35.20;31.80;;;;;;6181481;23;20373;-81
2022/07/16 11:51:22;;;;;;;1.55;0.90;;;35.10;31.70;;;;;;6181779;23;20399;-83
2022/07/16 11:53:50;;;;;;;2.20;0.90;;;35.20;33.00;;;;;;6181504;23;20844;-82
2022/07/16 11:56:35;;;;;;;2.55;0.90;;;35.20;32.00;;;;;;6181545;23;20377;-80
2022/07/16 11:59:14;;;;;;;1.50;0.90;;;35.10;31.60;;;;;;6168377;23;20365;-81
2022/07/16 12:01:42;;;;;;;1.20;0.80;;;35.10;31.60;;;;;;6180966;23;20390;-84
2022/07/16 12:04:09;;;;;;;2.40;0.90;;;35.00;32.00;;;;;;6183067;23;20380;-80
2022/07/16 12:06:36;;;;;;;1.30;1.02;;;35.00;32.30;;;;;;6181780;23;20474;-85
2022/07/16 12:09:03;;;;;;;1.13;1.02;;;35.10;32.20;;;;;;6180832;23;20369;-85
2022/07/16 12:11:32;;;;;;;1.27;0.80;;;35.20;34.10;;;;;;6158645;23;20436;-81
2022/07/16 12:14:01;;;;;;;2.10;0.90;;;35.30;32.80;;;;;;6181732;23;20380;-82
2022/07/16 12:16:31;;;;;;;1.30;1.02;;;35.40;31.70;;;;;;6181425;23;20388;-85
2022/07/16 12:19:16;;;;;;;1.00;0.80;;;35.30;31.50;;;;;;6180209;23;20399;-84
2022/07/16 12:21:48;;;;;;;1.27;0.75;;;35.30;32.50;;;;;;6180239;23;20916;-85
2022/07/16 12:24:27;;;;;;;0.70;0.70;;;35.30;32.00;;;;;;6180649;23;20832;-86
2022/07/16 12:26:54;;;;;;;1.40;0.90;;;35.40;31.40;;;;;;6180232;23;20392;-84
2022/07/16 12:29:21;;;;;;;0.95;0.82;;;35.60;31.00;;;;;;6181036;23;20391;-80
2022/07/16 12:31:48;;;;;;;1.55;0.80;;;35.70;30.30;;;;;;6181730;23;20376;-80
2022/07/16 12:34:15;;;;;;;1.25;0.80;;;35.80;30.80;;;;;;6182236;23;20431;-81
2022/07/16 12:36:42;;;;;;;1.60;1.10;;;36.00;31.00;;;;;;6180048;23;20709;-85
2022/07/16 12:39:10;;;;;;;1.35;0.70;;;36.20;30.00;;;;;;6181346;23;20693;-83
2022/07/16 12:41:41;;;;;;;2.50;1.10;;;36.20;30.60;;;;;;6180981;23;20459;-81
2022/07/16 12:44:17;;;;;;;1.20;0.85;;;36.30;29.50;;;;;;6168274;23;20368;-81
2022/07/16 12:46:49;;;;;;;2.00;0.90;;;36.20;30.00;;;;;;6180918;23;20388;-81
2022/07/16 12:49:26;;;;;;;2.00;0.88;;;36.20;30.00;;;;;;6181453;23;20438;-84
2022/07/16 12:51:56;;;;;;;2.90;0.93;;;36.30;30.40;;;;;;6180475;23;20871;-84
2022/07/16 12:54:24;;;;;;;1.08;0.90;;;36.40;30.30;;;;;;6181723;23;20391;-87
2022/07/16 12:59:36;;;;;;;1.90;0.90;;;36.30;30.10;;;;;;6182554;23;20372;-86
2022/07/16 13:02:07;;;;;;;1.20;0.70;;;36.40;30.60;;;;;;6182113;23;20675;-83
2022/07/16 13:04:34;;;;;;;1.10;0.80;;;36.70;30.90;;;;;;6180857;23;20736;-82
2022/07/16 13:07:03;;;;;;;2.90;1.00;;;37.10;29.90;;;;;;6180314;23;20376;-81
2022/07/16 13:09:30;;;;;;;2.22;1.00;;;37.10;29.40;;;;;;6181022;23;20444;-84